createdAt,value
2024-03-16T00:00:05.638Z,94828.00
2024-03-16T00:01:05.708Z,94828.00
2024-03-16T00:02:05.686Z,94829.00
2024-03-16T00:03:05.720Z,94831.00
2024-03-16T00:04:05.916Z,94829.00
2024-03-16T00:05:05.774Z,94829.00
2024-03-16T00:06:05.738Z,94831.00
2024-03-16T00:07:05.866Z,94831.00
2024-03-16T00:08:05.816Z,94832.00
2024-03-16T00:09:05.958Z,94833.00
2024-03-16T00:10:05.824Z,94832.00
2024-03-16T00:11:05.813Z,94834.00
2024-03-16T00:12:05.827Z,94834.00
2024-03-16T00:13:05.985Z,94832.00
2024-03-16T00:14:05.880Z,94832.00
2024-03-16T00:15:05.859Z,94833.00
2024-03-16T00:16:05.996Z,94833.00
2024-03-16T00:17:05.944Z,94835.00
2024-03-16T00:18:05.951Z,94836.00
2024-03-16T00:19:06.002Z,94839.00
2024-03-16T00:20:05.958Z,94842.00
2024-03-16T00:21:05.978Z,94840.00
2024-03-16T00:22:06.107Z,94842.00
2024-03-16T00:23:06.045Z,94843.00
2024-03-16T00:24:06.081Z,94841.00
2024-03-16T00:25:06.104Z,94845.00
2024-03-16T00:26:06.168Z,94845.00
2024-03-16T00:27:06.085Z,94846.00
2024-03-16T00:28:06.237Z,94845.00
2024-03-16T00:29:06.101Z,94845.00
2024-03-16T00:30:06.185Z,94842.00
2024-03-16T00:31:07.413Z,94840.00
2024-03-16T00:32:06.212Z,94834.00
2024-03-16T00:33:06.215Z,94832.00
2024-03-16T00:34:06.358Z,94830.00
2024-03-16T00:35:06.247Z,94828.00
2024-03-16T00:36:06.322Z,94827.00
2024-03-16T00:37:06.503Z,94829.00
2024-03-16T00:38:06.310Z,94827.00
2024-03-16T00:39:06.363Z,94831.00
2024-03-16T00:40:06.472Z,94831.00
2024-03-16T00:41:06.367Z,94833.00
2024-03-16T00:42:06.412Z,94835.00
2024-03-16T00:43:06.547Z,94832.00
2024-03-16T00:44:06.421Z,94832.00
2024-03-16T00:45:06.500Z,94831.00
2024-03-16T00:46:06.717Z,94830.00
2024-03-16T00:47:06.551Z,94830.00
2024-03-16T00:48:06.590Z,94834.00
2024-03-16T00:49:06.807Z,94836.00
2024-03-16T00:50:06.537Z,94838.00
2024-03-16T00:51:06.565Z,94841.00
2024-03-16T00:52:06.754Z,94841.00
2024-03-16T00:53:06.579Z,94840.00
2024-03-16T00:54:06.658Z,94840.00
2024-03-16T00:55:06.710Z,94838.00
2024-03-16T00:56:06.675Z,94839.00
2024-03-16T00:57:06.679Z,94840.00
2024-03-16T00:58:06.943Z,94842.00
2024-03-16T00:59:06.854Z,94842.00
2024-03-16T01:00:06.778Z,94841.00
2024-03-16T01:01:07.000Z,94843.00
2024-03-16T01:02:06.867Z,94841.00
2024-03-16T01:03:06.949Z,94841.00
2024-03-16T01:04:07.070Z,94842.00
2024-03-16T01:05:06.932Z,94847.00
2024-03-16T01:06:06.952Z,94847.00
2024-03-16T01:07:07.017Z,94848.00
2024-03-16T01:08:06.940Z,94848.00
2024-03-16T01:09:07.048Z,94845.00
2024-03-16T01:10:07.189Z,94844.00
2024-03-16T01:11:07.285Z,94844.00
2024-03-16T01:12:07.097Z,94841.00
2024-03-16T01:13:07.162Z,94841.00
2024-03-16T01:14:07.122Z,94842.00
2024-03-16T01:15:07.145Z,94840.00
2024-03-16T01:16:07.253Z,94845.00
2024-03-16T01:17:07.250Z,94846.00
2024-03-16T01:18:07.295Z,94845.00
2024-03-16T01:19:07.559Z,94845.00
2024-03-16T01:20:07.253Z,94843.00
2024-03-16T01:21:07.389Z,94842.00
2024-03-16T01:22:07.387Z,94840.00
2024-03-16T01:23:07.359Z,94842.00
2024-03-16T01:24:07.341Z,94846.00
2024-03-16T01:25:07.496Z,94849.00
2024-03-16T01:26:07.498Z,94851.00
2024-03-16T01:27:07.411Z,94850.00
2024-03-16T01:28:07.574Z,94850.00
2024-03-16T01:29:07.531Z,94849.00
2024-03-16T01:30:08.332Z,94850.00
2024-03-16T01:31:07.562Z,94852.00
2024-03-16T01:32:07.563Z,94853.00
2024-03-16T01:33:07.610Z,94855.00
2024-03-16T01:34:07.685Z,94854.00
2024-03-16T01:35:07.662Z,94856.00
2024-03-16T01:36:07.701Z,94854.00
2024-03-16T01:37:07.747Z,94853.00
2024-03-16T01:38:07.862Z,94857.00
2024-03-16T01:39:07.771Z,94858.00
2024-03-16T01:40:08.014Z,94861.00
2024-03-16T01:41:07.812Z,94864.00
2024-03-16T01:42:07.833Z,94864.00
2024-03-16T01:43:07.997Z,94863.00
2024-03-16T01:44:07.923Z,94865.00
2024-03-16T01:45:08.083Z,94862.00
2024-03-16T01:46:08.071Z,94862.00
2024-03-16T01:47:08.838Z,94863.00
2024-03-16T01:48:08.015Z,94862.00
2024-03-16T01:49:08.137Z,94859.00
2024-03-16T01:50:08.111Z,94856.00
2024-03-16T01:51:08.456Z,94855.00
2024-03-16T01:52:08.147Z,94853.00
2024-03-16T01:53:08.138Z,94852.00
2024-03-16T01:54:08.279Z,94856.00
2024-03-16T01:55:08.381Z,94857.00
2024-03-16T01:56:08.210Z,94858.00
2024-03-16T01:57:08.303Z,94856.00
2024-03-16T01:58:08.615Z,94858.00
2024-03-16T01:59:08.292Z,94854.00
2024-03-16T02:00:08.359Z,94854.00
2024-03-16T02:01:08.434Z,94855.00
2024-03-16T02:02:08.465Z,94854.00
2024-03-16T02:03:08.456Z,94852.00
2024-03-16T02:04:08.486Z,94852.00
2024-03-16T02:05:08.506Z,94850.00
2024-03-16T02:06:08.508Z,94847.00
2024-03-16T02:07:08.592Z,94848.00
2024-03-16T02:08:08.545Z,94847.00
2024-03-16T02:09:08.643Z,94848.00
2024-03-16T02:10:08.748Z,94847.00
2024-03-16T02:11:08.681Z,94846.00
2024-03-16T02:12:08.728Z,94847.00
2024-03-16T02:13:08.787Z,94845.00
2024-03-16T02:14:08.762Z,94843.00
2024-03-16T02:15:08.814Z,94842.00
2024-03-16T02:16:08.902Z,94840.00
2024-03-16T02:17:08.858Z,94841.00
2024-03-16T02:18:08.930Z,94844.00
2024-03-16T02:19:08.995Z,94846.00
2024-03-16T02:20:08.952Z,94849.00
2024-03-16T02:21:08.988Z,94854.00
2024-03-16T02:22:09.058Z,94854.00
2024-03-16T02:23:09.082Z,94854.00
2024-03-16T02:24:09.142Z,94854.00
2024-03-16T02:25:09.287Z,94854.00
2024-03-16T02:26:09.206Z,94854.00
2024-03-16T02:27:09.249Z,94855.00
2024-03-16T02:28:09.423Z,94855.00
2024-03-16T02:29:09.282Z,94859.00
2024-03-16T02:30:09.357Z,94860.00
2024-03-16T02:31:09.407Z,94862.00
2024-03-16T02:32:09.379Z,94864.00
2024-03-16T02:33:09.472Z,94866.00
2024-03-16T02:34:09.603Z,94868.00
2024-03-16T02:35:09.525Z,94871.00
2024-03-16T02:36:09.552Z,94872.00
2024-03-16T02:37:09.670Z,94872.00
2024-03-16T02:38:09.610Z,94873.00
2024-03-16T02:39:09.698Z,94872.00
2024-03-16T02:40:09.756Z,94870.00
2024-03-16T02:41:09.754Z,94868.00
2024-03-16T02:42:09.761Z,94867.00
2024-03-16T02:43:09.813Z,94867.00
2024-03-16T02:44:09.924Z,94864.00
2024-03-16T02:45:09.820Z,94867.00
2024-03-16T02:46:09.906Z,94869.00
2024-03-16T02:47:09.947Z,94872.00
2024-03-16T02:48:09.983Z,94874.00
2024-03-16T02:49:10.040Z,94875.00
2024-03-16T02:50:10.024Z,94877.00
2024-03-16T02:51:10.080Z,94875.00
2024-03-16T02:52:10.230Z,94875.00
2024-03-16T02:53:10.137Z,94874.00
2024-03-16T02:54:10.193Z,94875.00
2024-03-16T02:55:10.297Z,94875.00
2024-03-16T02:56:10.227Z,94874.00
2024-03-16T02:57:10.272Z,94876.00
2024-03-16T02:58:10.358Z,94877.00
2024-03-16T02:59:10.367Z,94878.00
2024-03-16T03:00:10.379Z,94879.00
2024-03-16T03:01:10.546Z,94881.00
2024-03-16T03:02:10.460Z,94885.00
2024-03-16T03:03:10.513Z,94889.00
2024-03-16T03:04:10.606Z,94894.00
2024-03-16T03:05:10.567Z,94895.00
2024-03-16T03:06:10.649Z,94896.00
2024-03-16T03:07:10.715Z,94897.00
2024-03-16T03:08:10.699Z,94894.00
2024-03-16T03:09:10.699Z,94895.00
2024-03-16T03:10:10.855Z,94896.00
2024-03-16T03:11:10.777Z,94897.00
2024-03-16T03:12:10.836Z,94898.00
2024-03-16T03:13:10.939Z,94901.00
2024-03-16T03:14:10.859Z,94904.00
2024-03-16T03:15:10.946Z,94905.00
2024-03-16T03:16:11.003Z,94906.00
2024-03-16T03:17:10.962Z,94906.00
2024-03-16T03:18:11.066Z,94909.00
2024-03-16T03:19:11.285Z,94912.00
2024-03-16T03:20:11.621Z,94919.00
2024-03-16T03:21:11.155Z,94917.00
2024-03-16T03:22:11.237Z,94922.00
2024-03-16T03:23:11.254Z,94926.00
2024-03-16T03:24:11.251Z,94927.00
2024-03-16T03:25:11.674Z,94930.00
2024-03-16T03:26:11.326Z,94930.00
2024-03-16T03:27:11.390Z,94934.00
2024-03-16T03:28:11.466Z,94938.00
2024-03-16T03:29:11.426Z,94941.00
2024-03-16T03:30:11.494Z,94944.00
2024-03-16T03:31:11.549Z,94943.00
2024-03-16T03:32:11.559Z,94945.00
2024-03-16T03:33:11.654Z,94945.00
2024-03-16T03:34:11.676Z,94948.00
2024-03-16T03:35:11.665Z,94947.00
2024-03-16T03:36:11.692Z,94946.00
2024-03-16T03:37:11.813Z,94946.00
2024-03-16T03:38:11.770Z,94946.00
2024-03-16T03:39:11.792Z,94946.00
2024-03-16T03:40:11.910Z,94945.00
2024-03-16T03:41:11.944Z,94942.00
2024-03-16T03:42:11.956Z,94945.00
2024-03-16T03:43:12.074Z,94945.00
2024-03-16T03:44:12.092Z,94947.00
2024-03-16T03:45:12.238Z,94947.00
2024-03-16T03:46:12.207Z,94948.00
2024-03-16T03:47:12.186Z,94949.00
2024-03-16T03:48:12.259Z,94950.00
2024-03-16T03:49:12.819Z,94947.00
2024-03-16T03:50:12.324Z,94946.00
2024-03-16T03:51:12.320Z,94945.00
2024-03-16T03:52:12.473Z,94945.00
2024-03-16T03:53:12.425Z,94946.00
2024-03-16T03:54:12.442Z,94944.00
2024-03-16T03:55:12.535Z,94942.00
2024-03-16T03:56:12.538Z,94943.00
2024-03-16T03:57:12.605Z,94943.00
2024-03-16T03:58:12.755Z,94944.00
2024-03-16T03:59:12.738Z,94943.00
2024-03-16T04:00:12.746Z,94943.00
2024-03-16T04:01:12.914Z,94942.00
2024-03-16T04:02:12.861Z,94941.00
2024-03-16T04:03:12.893Z,94943.00
2024-03-16T04:04:12.969Z,94942.00
2024-03-16T04:05:12.923Z,94941.00
2024-03-16T04:06:20.099Z,94943.00
2024-03-16T04:07:20.110Z,94938.00
2024-03-16T04:08:20.177Z,94941.00
2024-03-16T04:09:20.076Z,94942.00
2024-03-16T04:10:20.059Z,94940.00
2024-03-16T04:11:20.123Z,94940.00
2024-03-16T04:12:20.110Z,94940.00
2024-03-16T04:13:20.093Z,94940.00
2024-03-16T04:14:20.112Z,94943.00
2024-03-16T04:15:20.132Z,94941.00
2024-03-16T04:16:20.196Z,94942.00
2024-03-16T04:17:20.128Z,94942.00
2024-03-16T04:18:20.142Z,94940.00
2024-03-16T04:19:20.254Z,94940.00
2024-03-16T04:20:20.148Z,94941.00
2024-03-16T04:21:20.142Z,94939.00
2024-03-16T04:22:20.171Z,94938.00
2024-03-16T04:23:20.117Z,94937.00
2024-03-16T04:24:20.205Z,94937.00
2024-03-16T04:25:20.153Z,94933.00
2024-03-16T04:26:20.139Z,94930.00
2024-03-16T04:27:20.143Z,94928.00
2024-03-16T04:28:20.113Z,94926.00
2024-03-16T04:29:20.086Z,94922.00
2024-03-16T04:30:20.136Z,94923.00
2024-03-16T04:31:27.334Z,94924.00
2024-03-16T04:32:27.290Z,94925.00
2024-03-16T04:33:27.304Z,94924.00
2024-03-16T04:34:27.311Z,94925.00
2024-03-16T04:35:27.317Z,94922.00
2024-03-16T04:36:27.430Z,94922.00
2024-03-16T04:37:27.290Z,94922.00
2024-03-16T04:38:27.322Z,94919.00
2024-03-16T04:39:27.315Z,94923.00
2024-03-16T04:40:27.302Z,94921.00
2024-03-16T04:41:27.764Z,94921.00
2024-03-16T04:42:27.327Z,94925.00
2024-03-16T04:43:27.497Z,94924.00
2024-03-16T04:44:27.318Z,94928.00
2024-03-16T04:45:27.354Z,94931.00
2024-03-16T04:46:27.292Z,94928.00
2024-03-16T04:47:27.314Z,94930.00
2024-03-16T04:48:27.389Z,94929.00
2024-03-16T04:49:27.278Z,94927.00
2024-03-16T04:50:27.322Z,94929.00
2024-03-16T04:51:27.375Z,94929.00
2024-03-16T04:52:27.336Z,94930.00
2024-03-16T04:53:27.316Z,94931.00
2024-03-16T04:54:27.332Z,94933.00
2024-03-16T04:55:27.292Z,94934.00
2024-03-16T04:56:27.358Z,94934.00
2024-03-16T04:57:27.323Z,94934.00
2024-03-16T04:58:27.299Z,94937.00
2024-03-16T04:59:27.280Z,94939.00
2024-03-16T05:00:27.495Z,94938.00
2024-03-16T05:01:27.572Z,94939.00
2024-03-16T05:02:27.390Z,94940.00
2024-03-16T05:03:27.473Z,94938.00
2024-03-16T05:04:27.490Z,94938.00
2024-03-16T05:05:27.557Z,94937.00
2024-03-16T05:06:27.668Z,94935.00
2024-03-16T05:07:27.651Z,94934.00
2024-03-16T05:08:27.686Z,94934.00
2024-03-16T05:09:27.775Z,94936.00
2024-03-16T05:10:28.024Z,94936.00
2024-03-16T05:11:27.883Z,94931.00
2024-03-16T05:12:27.936Z,94930.00
2024-03-16T05:13:29.616Z,94925.00
2024-03-16T05:14:28.008Z,94927.00
2024-03-16T05:15:28.004Z,94926.00
2024-03-16T05:16:27.947Z,94929.00
2024-03-16T05:17:27.953Z,94933.00
2024-03-16T05:18:27.982Z,94935.00
2024-03-16T05:19:27.949Z,94934.00
2024-03-16T05:20:27.974Z,94934.00
2024-03-16T05:21:27.984Z,94932.00
2024-03-16T05:22:28.047Z,94933.00
2024-03-16T05:23:28.000Z,94935.00
2024-03-16T05:24:27.939Z,94938.00
2024-03-16T05:25:27.962Z,94936.00
2024-03-16T05:26:27.985Z,94937.00
2024-03-16T05:27:28.053Z,94933.00
2024-03-16T05:28:28.271Z,94934.00
2024-03-16T05:29:27.979Z,94934.00
2024-03-16T05:30:28.092Z,94935.00
2024-03-16T05:31:27.987Z,94938.00
2024-03-16T05:32:27.964Z,94939.00
2024-03-16T05:33:27.985Z,94940.00
2024-03-16T05:34:27.966Z,94942.00
2024-03-16T05:35:27.984Z,94940.00
2024-03-16T05:36:27.955Z,94940.00
2024-03-16T05:37:30.813Z,94939.00
2024-03-16T05:38:27.982Z,94939.00
2024-03-16T05:39:28.012Z,94941.00
2024-03-16T05:40:28.070Z,94943.00
2024-03-16T05:41:28.000Z,94948.00
2024-03-16T05:42:28.048Z,94949.00
2024-03-16T05:43:27.984Z,94949.00
2024-03-16T05:44:27.921Z,94947.00
2024-03-16T05:45:28.059Z,94946.00
2024-03-16T05:46:27.991Z,94942.00
2024-03-16T05:47:28.001Z,94938.00
2024-03-16T05:48:28.549Z,94940.00
2024-03-16T05:49:28.342Z,94942.00
2024-03-16T05:50:27.954Z,94944.00
2024-03-16T05:51:28.012Z,94948.00
2024-03-16T05:52:27.995Z,94948.00
2024-03-16T05:53:28.079Z,94951.00
2024-03-16T05:54:28.045Z,94950.00
2024-03-16T05:55:27.989Z,94949.00
2024-03-16T05:56:28.022Z,94948.00
2024-03-16T05:57:28.043Z,94946.00
2024-03-16T05:58:27.937Z,94946.00
2024-03-16T05:59:28.025Z,94947.00
2024-03-16T06:00:28.092Z,94948.00
2024-03-16T06:01:28.757Z,94949.00
2024-03-16T06:02:27.952Z,94949.00
2024-03-16T06:03:28.033Z,94949.00
2024-03-16T06:04:27.961Z,94949.00
2024-03-16T06:05:28.029Z,94950.00
2024-03-16T06:06:28.004Z,94952.00
2024-03-16T06:07:27.971Z,94953.00
2024-03-16T06:08:27.999Z,94953.00
2024-03-16T06:09:28.025Z,94954.00
2024-03-16T06:10:27.970Z,94954.00
2024-03-16T06:11:28.112Z,94957.00
2024-03-16T06:12:28.067Z,94960.00
2024-03-16T06:13:28.009Z,94964.00
2024-03-16T06:14:28.014Z,94966.00
2024-03-16T06:15:28.018Z,94969.00
2024-03-16T06:16:27.979Z,94970.00
2024-03-16T06:17:28.092Z,94972.00
2024-03-16T06:18:28.078Z,94973.00
2024-03-16T06:19:28.014Z,94977.00
2024-03-16T06:20:28.017Z,94978.00
2024-03-16T06:21:28.029Z,94980.00
2024-03-16T06:22:28.006Z,94981.00
2024-03-16T06:23:28.062Z,94983.00
2024-03-16T06:24:28.033Z,94987.00
2024-03-16T06:25:28.030Z,94987.00
2024-03-16T06:26:28.012Z,94989.00
2024-03-16T06:27:28.009Z,94992.00
2024-03-16T06:28:28.001Z,94991.00
2024-03-16T06:29:27.991Z,94991.00
2024-03-16T06:30:28.271Z,94991.00
2024-03-16T06:31:28.516Z,94988.00
2024-03-16T06:32:28.070Z,94992.00
2024-03-16T06:33:28.010Z,94995.00
2024-03-16T06:34:28.052Z,94999.00
2024-03-16T06:35:28.078Z,95001.00
2024-03-16T06:36:28.086Z,95002.00
2024-03-16T06:37:28.013Z,95005.00
2024-03-16T06:38:28.021Z,95005.00
2024-03-16T06:39:28.030Z,95008.00
2024-03-16T06:40:28.022Z,95009.00
2024-03-16T06:41:28.047Z,95012.00
2024-03-16T06:42:28.119Z,95010.00
2024-03-16T06:43:28.025Z,95013.00
2024-03-16T06:44:28.021Z,95015.00
2024-03-16T06:45:28.209Z,95011.00
2024-03-16T06:46:28.026Z,95012.00
2024-03-16T06:47:28.000Z,95012.00
2024-03-16T06:48:28.067Z,95012.00
2024-03-16T06:49:28.036Z,95011.00
2024-03-16T06:50:28.054Z,95009.00
2024-03-16T06:51:28.117Z,95008.00
2024-03-16T06:52:28.089Z,95006.00
2024-03-16T06:53:28.070Z,95010.00
2024-03-16T06:54:28.216Z,95011.00
2024-03-16T06:55:28.193Z,95017.00
2024-03-16T06:56:28.190Z,95017.00
2024-03-16T06:57:28.285Z,95016.00
2024-03-16T06:58:28.256Z,95019.00
2024-03-16T06:59:28.384Z,95017.00
2024-03-16T07:00:28.531Z,95015.00
2024-03-16T07:01:28.468Z,95018.00
2024-03-16T07:02:28.402Z,95019.00
2024-03-16T07:03:28.590Z,95019.00
2024-03-16T07:04:28.418Z,95022.00
2024-03-16T07:05:28.441Z,95018.00
2024-03-16T07:06:28.660Z,95021.00
2024-03-16T07:07:28.510Z,95017.00
2024-03-16T07:08:28.509Z,95016.00
2024-03-16T07:09:29.557Z,95016.00
2024-03-16T07:10:28.614Z,95016.00
2024-03-16T07:11:28.569Z,95019.00
2024-03-16T07:12:28.654Z,95019.00
2024-03-16T07:13:28.598Z,95020.00
2024-03-16T07:14:28.628Z,95020.00
2024-03-16T07:15:28.729Z,95022.00
2024-03-16T07:16:28.596Z,95025.00
2024-03-16T07:17:28.754Z,95026.00
2024-03-16T07:18:28.747Z,95030.00
2024-03-16T07:19:28.657Z,95034.00
2024-03-16T07:20:28.678Z,95038.00
2024-03-16T07:22:28.744Z,95043.00
2024-03-16T07:23:28.715Z,95047.00
2024-03-16T07:24:28.792Z,95044.00
2024-03-16T07:25:28.725Z,95044.00
2024-03-16T07:26:28.736Z,95047.00
2024-03-16T07:27:28.768Z,95045.00
2024-03-16T07:28:28.754Z,95051.00
2024-03-16T07:29:28.822Z,95046.00
2024-03-16T07:30:28.857Z,95047.00
2024-03-16T07:31:28.862Z,95046.00
2024-03-16T07:32:28.835Z,95047.00
2024-03-16T07:33:28.904Z,95044.00
2024-03-16T07:34:28.919Z,95044.00
2024-03-16T07:35:28.870Z,95043.00
2024-03-16T07:36:28.914Z,95044.00
2024-03-16T07:37:28.978Z,95042.00
2024-03-16T07:38:28.893Z,95041.00
2024-03-16T07:39:28.987Z,95041.00
2024-03-16T07:40:29.035Z,95041.00
2024-03-16T07:41:28.974Z,95045.00
2024-03-16T07:42:29.011Z,95045.00
2024-03-16T07:43:28.961Z,95048.00
2024-03-16T07:44:29.033Z,95053.00
2024-03-16T07:45:29.077Z,95057.00
2024-03-16T07:46:29.002Z,95052.00
2024-03-16T07:47:29.000Z,95051.00
2024-03-16T07:48:29.312Z,95055.00
2024-03-16T07:49:29.061Z,95057.00
2024-03-16T07:50:29.079Z,95061.00
2024-03-16T07:51:29.189Z,95065.00
2024-03-16T07:52:29.129Z,95069.00
2024-03-16T07:53:29.192Z,95068.00
2024-03-16T07:54:29.238Z,95071.00
2024-03-16T07:55:29.200Z,95063.00
2024-03-16T07:56:29.252Z,95068.00
2024-03-16T07:57:29.274Z,95068.00
2024-03-16T07:58:29.285Z,95076.00
2024-03-16T07:59:29.349Z,95073.00
2024-03-16T08:00:29.441Z,95080.00
2024-03-16T08:01:29.411Z,95079.00
2024-03-16T08:02:29.354Z,95082.00
2024-03-16T08:03:29.393Z,95084.00
2024-03-16T08:04:29.362Z,95083.00
2024-03-16T08:05:29.468Z,95082.00
2024-03-16T08:06:29.447Z,95072.00
2024-03-16T08:07:29.423Z,95069.00
2024-03-16T08:08:29.535Z,95062.00
2024-03-16T08:09:29.636Z,95061.00
2024-03-16T08:10:29.770Z,95061.00
2024-03-16T08:11:29.598Z,95065.00
2024-03-16T08:12:31.780Z,95064.00
2024-03-16T08:13:29.597Z,95068.00
2024-03-16T08:14:29.595Z,95066.00
2024-03-16T08:15:29.674Z,95065.00
2024-03-16T08:16:29.682Z,95065.00
2024-03-16T08:17:29.675Z,95064.00
2024-03-16T08:18:29.778Z,95065.00
2024-03-16T08:19:29.650Z,95067.00
2024-03-16T08:20:29.632Z,95067.00
2024-03-16T08:21:29.745Z,95066.00
2024-03-16T08:22:29.732Z,95069.00
2024-03-16T08:23:29.643Z,95068.00
2024-03-16T08:24:29.755Z,95069.00
2024-03-16T08:25:29.770Z,95066.00
2024-03-16T08:26:29.698Z,95065.00
2024-03-16T08:27:33.403Z,95066.00
2024-03-16T08:28:30.703Z,95067.00
2024-03-16T08:29:29.700Z,95066.00
2024-03-16T08:30:29.756Z,95065.00
2024-03-16T08:31:29.829Z,95066.00
2024-03-16T08:32:29.749Z,95063.00
2024-03-16T08:33:29.775Z,95063.00
2024-03-16T08:34:29.771Z,95063.00
2024-03-16T08:35:29.848Z,95063.00
2024-03-16T08:36:29.727Z,95062.00
2024-03-16T08:37:29.764Z,95065.00
2024-03-16T08:38:29.760Z,95065.00
2024-03-16T08:39:29.859Z,95066.00
2024-03-16T08:40:29.736Z,95065.00
2024-03-16T08:41:29.862Z,95068.00
2024-03-16T08:42:29.802Z,95066.00
2024-03-16T08:43:29.926Z,95065.00
2024-03-16T08:44:51.313Z,95068.00
2024-03-16T08:45:51.306Z,95070.00
2024-03-16T08:46:51.263Z,95071.00
2024-03-16T08:47:51.373Z,95074.00
2024-03-16T08:48:51.397Z,95074.00
2024-03-16T08:49:51.327Z,95074.00
2024-03-16T08:50:51.300Z,95071.00
2024-03-16T08:51:51.329Z,95073.00
2024-03-16T08:52:51.329Z,95070.00
2024-03-16T08:53:51.349Z,95070.00
2024-03-16T08:54:51.488Z,95069.00
2024-03-16T08:55:51.340Z,95071.00
2024-03-16T08:56:51.350Z,95072.00
2024-03-16T08:57:51.333Z,95072.00
2024-03-16T08:58:51.275Z,95071.00
2024-03-16T08:59:51.366Z,95072.00
2024-03-16T09:00:51.340Z,95071.00
2024-03-16T09:01:51.422Z,95070.00
2024-03-16T09:02:51.300Z,95074.00
2024-03-16T09:03:51.378Z,95070.00
2024-03-16T09:04:52.672Z,95071.00
2024-03-16T09:05:51.318Z,95069.00
2024-03-16T09:06:51.362Z,95071.00
2024-03-16T09:07:51.309Z,95069.00
2024-03-16T09:08:51.305Z,95074.00
2024-03-16T09:09:51.376Z,95072.00
2024-03-16T09:10:51.319Z,95074.00
2024-03-16T09:11:51.439Z,95072.00
2024-03-16T09:12:51.361Z,95067.00
2024-03-16T09:13:51.339Z,95065.00
2024-03-16T09:14:51.346Z,95068.00
2024-03-16T09:15:51.310Z,95066.00
2024-03-16T09:16:51.359Z,95069.00
2024-03-16T09:17:51.328Z,95070.00
2024-03-16T09:18:51.358Z,95073.00
2024-03-16T09:19:51.443Z,95075.00
2024-03-16T09:20:51.390Z,95077.00
2024-03-16T09:21:51.376Z,95079.00
2024-03-16T09:22:51.332Z,95082.00
2024-03-16T09:23:51.340Z,95084.00
2024-03-16T09:24:51.380Z,95085.00
2024-03-16T09:25:51.355Z,95087.00
2024-03-16T09:26:51.333Z,95085.00
2024-03-16T09:27:51.451Z,95085.00
2024-03-16T09:28:51.482Z,95084.00
2024-03-16T09:29:51.551Z,95081.00
2024-03-16T09:30:55.021Z,95083.00
2024-03-16T09:31:52.592Z,95082.00
2024-03-16T09:32:51.675Z,95082.00
2024-03-16T09:33:51.662Z,95083.00
2024-03-16T09:34:51.620Z,95083.00
2024-03-16T09:35:51.646Z,95085.00
2024-03-16T09:36:51.640Z,95084.00
2024-03-16T09:37:51.594Z,95082.00
2024-03-16T09:38:51.612Z,95085.00
2024-03-16T09:39:51.651Z,95089.00
2024-03-16T09:40:51.630Z,95091.00
2024-03-16T09:41:51.632Z,95092.00
2024-03-16T09:42:51.681Z,95093.00
2024-03-16T09:43:51.660Z,95094.00
2024-03-16T09:44:51.666Z,95093.00
2024-03-16T09:45:51.714Z,95092.00
2024-03-16T09:46:51.665Z,95090.00
2024-03-16T09:47:51.739Z,95094.00
2024-03-16T09:48:51.800Z,95094.00
2024-03-16T09:49:51.732Z,95094.00
2024-03-16T09:50:51.762Z,95094.00
2024-03-16T09:51:51.929Z,95095.00
2024-03-16T09:52:51.836Z,95093.00
2024-03-16T09:53:51.922Z,95095.00
2024-03-16T09:54:52.022Z,95094.00
2024-03-16T09:55:51.925Z,95096.00
2024-03-16T09:56:53.066Z,95095.00
2024-03-16T09:57:52.018Z,95093.00
2024-03-16T09:58:52.059Z,95092.00
2024-03-16T09:59:51.961Z,95090.00
2024-03-16T10:00:52.005Z,95088.00
2024-03-16T10:01:52.097Z,95087.00
2024-03-16T10:02:52.025Z,95082.00
2024-03-16T10:03:52.235Z,95083.00
2024-03-16T10:04:52.134Z,95083.00
2024-03-16T10:05:52.312Z,95082.00
2024-03-16T10:06:52.319Z,95082.00
2024-03-16T10:07:52.319Z,95083.00
2024-03-16T10:08:52.955Z,95086.00
2024-03-16T10:09:52.443Z,95084.00
2024-03-16T10:10:52.444Z,95082.00
2024-03-16T10:11:52.494Z,95080.00
2024-03-16T10:12:52.573Z,95080.00
2024-03-16T10:13:52.608Z,95081.00
2024-03-16T10:14:52.665Z,95079.00
2024-03-16T10:15:52.752Z,95079.00
2024-03-16T10:16:52.789Z,95078.00
2024-03-16T10:17:52.799Z,95075.00
2024-03-16T10:18:52.908Z,95073.00
2024-03-16T10:19:52.915Z,95070.00
2024-03-16T10:20:53.008Z,95071.00
2024-03-16T10:21:53.048Z,95068.00
2024-03-16T10:22:53.079Z,95068.00
2024-03-16T10:23:53.091Z,95067.00
2024-03-16T10:24:53.167Z,95062.00
2024-03-16T10:25:53.166Z,95063.00
2024-03-16T10:26:53.248Z,95062.00
2024-03-16T10:27:53.306Z,95061.00
2024-03-16T10:28:53.348Z,95061.00
2024-03-16T10:29:53.426Z,95060.00
2024-03-16T10:30:53.524Z,95058.00
2024-03-16T10:31:55.395Z,95053.00
2024-03-16T10:32:53.612Z,95050.00
2024-03-16T10:33:53.677Z,95049.00
2024-03-16T10:34:53.734Z,95047.00
2024-03-16T10:35:53.782Z,95043.00
2024-03-16T10:36:53.953Z,95040.00
2024-03-16T10:37:53.967Z,95038.00
2024-03-16T10:38:53.965Z,95040.00
2024-03-16T10:39:54.070Z,95037.00
2024-03-16T10:40:54.006Z,95033.00
2024-03-16T10:41:54.073Z,95036.00
2024-03-16T10:42:54.095Z,95039.00
2024-03-16T10:43:54.139Z,95040.00
2024-03-16T10:44:56.723Z,95040.00
2024-03-16T10:45:54.425Z,95039.00
2024-03-16T10:46:54.429Z,95038.00
2024-03-16T10:47:54.438Z,95038.00
2024-03-16T10:48:54.441Z,95037.00
2024-03-16T10:49:54.500Z,95038.00
2024-03-16T10:50:57.530Z,95036.00
2024-03-16T10:51:54.519Z,95040.00
2024-03-16T10:52:54.499Z,95042.00
2024-03-16T10:53:54.504Z,95039.00
2024-03-16T10:54:54.476Z,95039.00
2024-03-16T10:55:54.530Z,95034.00
2024-03-16T10:56:57.258Z,95042.00
2024-03-16T10:57:54.533Z,95037.00
2024-03-16T10:58:54.503Z,95034.00
2024-03-16T10:59:54.518Z,95036.00
2024-03-16T11:00:54.537Z,95029.00
2024-03-16T11:01:54.564Z,95027.00
2024-03-16T11:02:56.898Z,95025.00
2024-03-16T11:03:54.539Z,95022.00
2024-03-16T11:04:54.551Z,95026.00
2024-03-16T11:05:54.561Z,95027.00
2024-03-16T11:06:54.571Z,95027.00
2024-03-16T11:07:54.575Z,95025.00
2024-03-16T11:08:54.595Z,95024.00
2024-03-16T11:09:54.586Z,95023.00
2024-03-16T11:10:54.657Z,95023.00
2024-03-16T11:11:54.583Z,95017.00
2024-03-16T11:12:54.641Z,95013.00
2024-03-16T11:13:55.724Z,95012.00
2024-03-16T11:14:54.623Z,95012.00
2024-03-16T11:15:54.634Z,95012.00
2024-03-16T11:16:54.650Z,95009.00
2024-03-16T11:17:54.655Z,95008.00
2024-03-16T11:18:54.636Z,95008.00
2024-03-16T11:19:56.047Z,95008.00
2024-03-16T11:20:54.659Z,95007.00
2024-03-16T11:21:54.683Z,95002.00
2024-03-16T11:22:54.681Z,95005.00
2024-03-16T11:23:54.673Z,95005.00
2024-03-16T11:24:54.681Z,95003.00
2024-03-16T11:25:54.702Z,95005.00
2024-03-16T11:26:54.700Z,95005.00
2024-03-16T11:27:54.710Z,95003.00
2024-03-16T11:28:54.734Z,94998.00
2024-03-16T11:29:54.704Z,94997.00
2024-03-16T11:30:54.694Z,94994.00
2024-03-16T11:31:54.779Z,94993.00
2024-03-16T11:32:54.747Z,94990.00
2024-03-16T11:33:54.805Z,94988.00
2024-03-16T11:34:54.779Z,94988.00
2024-03-16T11:35:54.822Z,94986.00
2024-03-16T11:36:54.822Z,94984.00
2024-03-16T11:37:54.879Z,94982.00
2024-03-16T11:38:54.914Z,94981.00
2024-03-16T11:39:54.921Z,94979.00
2024-03-16T11:40:54.983Z,94977.00
2024-03-16T11:41:55.023Z,94977.00
2024-03-16T11:42:55.044Z,94978.00
2024-03-16T11:43:55.126Z,94975.00
2024-03-16T11:44:55.179Z,94978.00
2024-03-16T11:45:55.239Z,94978.00